Time;durP1;ratioP1;P1;durP2;ratioP2;P2;SDS_P1;SDS_P2;PMS_P1;PMS_P2;Temp;Humidity;BMP_temperature;BMP_pressure;BME280_temperature;BME280_humidity;BME280_pressure;Samples;Min_cycle;Max_cycle;Signal;HPM_P1;HPM_P2
2023/04/11 00:01:45;;;;;;;1.43;1.20;;;16.00;6.40;;;;;;5050753;28;20400;-77
2023/04/11 00:04:11;;;;;;;4.85;1.40;;;16.00;6.50;;;;;;5052338;28;20388;-77
2023/04/11 00:06:36;;;;;;;1.90;1.50;;;16.00;6.70;;;;;;5052104;28;20389;-77
2023/04/11 00:09:02;;;;;;;2.50;1.50;;;15.90;7.50;;;;;;5052301;28;20409;-77
2023/04/11 00:11:28;;;;;;;2.80;1.70;;;15.90;7.10;;;;;;5052799;28;20441;-80
2023/04/11 00:13:57;;;;;;;1.70;1.50;;;15.90;7.70;;;;;;5050718;28;20384;-77
2023/04/11 00:16:24;;;;;;;3.20;1.30;;;15.90;8.30;;;;;;5051824;28;20476;-77
2023/04/11 00:18:50;;;;;;;1.70;1.60;;;15.80;8.80;;;;;;5051953;28;20496;-77
2023/04/11 00:21:16;;;;;;;2.35;1.63;;;15.80;8.80;;;;;;5052278;28;20485;-77
2023/04/11 00:23:41;;;;;;;2.15;1.40;;;15.80;9.30;;;;;;5052399;28;20393;-78
2023/04/11 00:26:07;;;;;;;1.10;1.10;;;15.70;9.60;;;;;;5051852;28;20430;-77
2023/04/11 00:28:33;;;;;;;1.80;1.40;;;15.60;10.60;;;;;;5055159;28;20401;-77
2023/04/11 00:30:58;;;;;;;1.92;1.35;;;15.60;10.80;;;;;;5057443;28;20409;-78
2023/04/11 00:33:24;;;;;;;2.40;1.40;;;15.60;11.30;;;;;;5067273;28;20447;-78
2023/04/11 00:35:50;;;;;;;2.22;1.13;;;15.50;12.00;;;;;;5083143;28;20886;-77
2023/04/11 00:38:15;;;;;;;2.40;1.60;;;15.40;12.50;;;;;;5094346;28;20474;-78
2023/04/11 00:40:42;;;;;;;1.93;1.20;;;15.50;12.80;;;;;;5092814;28;20382;-78
2023/04/11 00:43:07;;;;;;;2.40;1.50;;;15.40;12.60;;;;;;5091007;28;20382;-78
2023/04/11 00:45:33;;;;;;;1.95;1.20;;;15.40;12.40;;;;;;5085305;28;20720;-79
2023/04/11 00:48:03;;;;;;;3.90;1.85;;;15.30;13.20;;;;;;5081329;28;20400;-77
2023/04/11 00:50:28;;;;;;;3.28;1.55;;;15.30;13.50;;;;;;5084497;28;20935;-77
2023/04/11 00:52:55;;;;;;;1.88;1.40;;;15.20;14.30;;;;;;5091855;28;20545;-78
2023/04/11 00:55:21;;;;;;;4.45;1.67;;;15.20;15.40;;;;;;5083370;28;20512;-77
2023/04/11 00:57:46;;;;;;;1.50;1.40;;;15.20;16.60;;;;;;5091427;28;20870;-78
2023/04/11 01:00:13;;;;;;;1.50;1.30;;;15.10;17.40;;;;;;5092023;28;20411;-77
2023/04/11 01:02:41;;;;;;;1.85;1.42;;;15.10;17.90;;;;;;5083659;28;20919;-76
2023/04/11 01:05:13;;;;;;;3.33;1.70;;;15.00;19.70;;;;;;5083049;28;20887;-77
2023/04/11 01:07:42;;;;;;;2.00;1.70;;;15.00;22.10;;;;;;5091206;28;20406;-77
2023/04/11 01:10:09;;;;;;;1.60;1.50;;;15.00;24.20;;;;;;5091619;28;20370;-77
2023/04/11 01:12:37;;;;;;;2.00;1.60;;;15.00;26.10;;;;;;5091361;28;20404;-76
2023/04/11 01:15:03;;;;;;;1.45;1.30;;;15.00;30.40;;;;;;5089381;28;20872;-77
2023/04/11 01:17:29;;;;;;;1.85;1.67;;;14.90;29.90;;;;;;5070475;28;20415;-78
2023/04/11 01:19:54;;;;;;;2.00;1.80;;;14.90;29.50;;;;;;5070825;28;20963;-78
2023/04/11 01:22:21;;;;;;;2.30;2.10;;;14.90;29.40;;;;;;5070524;28;20387;-78
2023/04/11 01:24:47;;;;;;;1.80;1.40;;;14.80;33.60;;;;;;5071149;28;20429;-75
2023/04/11 01:27:14;;;;;;;2.10;1.60;;;14.40;70.30;;;;;;5076621;28;20406;-79
2023/04/11 01:29:40;;;;;;;1.83;1.73;;;14.10;60.30;;;;;;5077096;28;20529;-77
2023/04/11 01:32:05;;;;;;;1.70;1.60;;;14.40;63.60;;;;;;5073949;28;20794;-78
2023/04/11 01:34:34;;;;;;;1.85;1.50;;;14.10;60.40;;;;;;5071260;28;20375;-78
2023/04/11 01:36:59;;;;;;;2.70;1.75;;;14.00;80.60;;;;;;5070339;28;20395;-79
2023/04/11 01:39:25;;;;;;;2.00;1.43;;;13.70;99.90;;;;;;5071764;28;20383;-79
2023/04/11 01:41:52;;;;;;;1.97;1.70;;;13.30;99.90;;;;;;5070438;28;20783;-78
2023/04/11 01:44:18;;;;;;;2.20;1.45;;;12.90;99.90;;;;;;5071446;28;20383;-78
2023/04/11 01:46:44;;;;;;;2.58;1.75;;;12.60;99.90;;;;;;5071431;28;20897;-78
2023/04/11 01:49:14;;;;;;;2.72;1.90;;;12.50;99.90;;;;;;5071435;28;20391;-79
2023/04/11 01:51:40;;;;;;;3.60;2.00;;;12.40;99.90;;;;;;5071599;28;20448;-78
2023/04/11 01:54:06;;;;;;;2.20;1.70;;;12.40;99.90;;;;;;5070581;28;20388;-78
2023/04/11 01:56:32;;;;;;;2.10;1.90;;;12.30;99.90;;;;;;5071159;28;20382;-79
2023/04/11 01:58:57;;;;;;;2.40;2.10;;;12.30;99.90;;;;;;5070070;28;20403;-79
2023/04/11 02:01:23;;;;;;;2.10;1.90;;;12.20;99.90;;;;;;5070203;28;20394;-79
2023/04/11 02:03:49;;;;;;;4.90;2.20;;;12.20;99.90;;;;;;5070462;28;20383;-80
2023/04/11 02:06:15;;;;;;;2.00;1.80;;;12.20;99.90;;;;;;5073624;28;20415;-77
2023/04/11 02:08:42;;;;;;;2.23;2.03;;;12.20;99.90;;;;;;5082470;28;20412;-77
2023/04/11 02:11:08;;;;;;;2.00;1.75;;;12.20;99.90;;;;;;5088197;28;20381;-78
2023/04/11 02:13:34;;;;;;;1.63;1.52;;;12.20;99.90;;;;;;5096636;28;20422;-78
2023/04/11 02:16:08;;;;;;;2.10;1.67;;;12.20;99.90;;;;;;5086919;28;20419;-79
2023/04/11 02:18:35;;;;;;;3.17;1.80;;;12.10;99.90;;;;;;5096035;22;20607;-84
2023/04/11 02:21:01;;;;;;;3.77;1.73;;;12.60;99.90;;;;;;5078982;28;20388;-83
2023/04/11 02:23:27;;;;;;;3.10;1.90;;;12.10;99.90;;;;;;5083973;28;20383;-83
2023/04/11 02:25:52;;;;;;;2.20;1.60;;;12.10;99.90;;;;;;5086449;28;20405;-84
2023/04/11 02:28:18;;;;;;;2.20;1.90;;;12.10;99.90;;;;;;5085840;28;20403;-82
2023/04/11 02:30:43;;;;;;;2.17;1.98;;;12.00;99.90;;;;;;5086240;28;20387;-83
2023/04/11 02:33:09;;;;;;;3.30;2.20;;;12.00;99.90;;;;;;5082266;28;20795;-83
2023/04/11 02:35:34;;;;;;;2.43;2.00;;;12.00;99.90;;;;;;5079169;28;20402;-84
2023/04/11 02:38:00;;;;;;;2.30;2.00;;;12.10;99.90;;;;;;5083139;28;20391;-83
2023/04/11 02:40:25;;;;;;;2.00;1.80;;;12.10;99.90;;;;;;5081135;28;20392;-83
2023/04/11 02:42:51;;;;;;;1.90;1.80;;;12.10;99.90;;;;;;5080318;28;20387;-83
2023/04/11 02:45:17;;;;;;;2.20;1.90;;;12.10;99.90;;;;;;5079039;28;20460;-83
2023/04/11 02:47:42;;;;;;;2.10;1.80;;;12.20;99.90;;;;;;5080286;28;20886;-82
2023/04/11 02:50:08;;;;;;;3.22;1.80;;;12.20;99.90;;;;;;5078826;28;20391;-82
2023/04/11 02:52:34;;;;;;;2.30;1.67;;;12.30;99.90;;;;;;5080494;28;20387;-82
2023/04/11 02:54:59;;;;;;;1.60;1.50;;;12.30;99.90;;;;;;5080363;28;20430;-83
2023/04/11 02:57:25;;;;;;;3.10;1.70;;;12.30;99.90;;;;;;5080373;28;20395;-84
2023/04/11 02:59:50;;;;;;;2.23;1.80;;;12.30;99.90;;;;;;5079561;28;20400;-84
2023/04/11 03:02:16;;;;;;;2.10;1.70;;;12.40;99.90;;;;;;5080693;28;20430;-84
2023/04/11 03:04:41;;;;;;;2.57;1.60;;;12.40;99.90;;;;;;5080600;28;20379;-81
2023/04/11 03:07:07;;;;;;;2.20;1.67;;;12.40;99.90;;;;;;5078779;28;20893;-84
2023/04/11 03:09:32;;;;;;;2.22;1.80;;;12.40;99.90;;;;;;5080184;28;20463;-85
2023/04/11 03:11:58;;;;;;;1.67;1.57;;;12.40;99.90;;;;;;5079308;28;20459;-83
2023/04/11 03:14:23;;;;;;;3.40;1.60;;;12.50;99.90;;;;;;5081116;28;20384;-82
2023/04/11 03:16:49;;;;;;;2.10;1.40;;;12.50;99.90;;;;;;5079412;28;20425;-83
2023/04/11 03:19:14;;;;;;;2.10;1.50;;;12.50;99.90;;;;;;5078871;28;20430;-83
2023/04/11 03:21:40;;;;;;;2.25;1.42;;;12.40;99.90;;;;;;5078859;28;20913;-82
2023/04/11 03:24:06;;;;;;;1.60;1.30;;;12.40;99.90;;;;;;5079707;28;20383;-82
2023/04/11 03:26:31;;;;;;;1.50;1.10;;;12.40;99.90;;;;;;5079047;28;20904;-82
2023/04/11 03:28:57;;;;;;;1.90;1.30;;;12.50;99.90;;;;;;5076475;28;20411;-82
2023/04/11 03:31:23;;;;;;;3.10;1.70;;;12.50;99.90;;;;;;5078992;28;20391;-83
2023/04/11 03:33:49;;;;;;;1.40;1.30;;;12.50;99.90;;;;;;5078853;28;20746;-83
2023/04/11 03:36:15;;;;;;;1.60;1.20;;;12.50;99.90;;;;;;5076552;28;20671;-82
2023/04/11 03:38:40;;;;;;;1.00;0.90;;;12.60;99.90;;;;;;5076639;28;20493;-83
2023/04/11 03:41:06;;;;;;;2.10;1.10;;;12.60;99.90;;;;;;5077716;28;20466;-82
2023/04/11 03:43:31;;;;;;;1.10;0.90;;;12.60;99.90;;;;;;5075284;28;20380;-82
2023/04/11 03:45:57;;;;;;;1.17;1.00;;;12.70;85.20;;;;;;5075555;28;20387;-83
2023/04/11 03:48:25;;;;;;;0.93;0.73;;;12.70;39.50;;;;;;5076088;28;20433;-82
2023/04/11 03:50:51;;;;;;;1.00;0.75;;;12.70;33.10;;;;;;5076474;28;20379;-82
2023/04/11 03:53:17;;;;;;;2.30;1.10;;;12.80;2.80;;;;;;5078173;28;20380;-82
2023/04/11 03:55:42;;;;;;;0.93;0.90;;;12.80;1.00;;;;;;5075058;28;20395;-82
2023/04/11 03:58:08;;;;;;;2.65;1.20;;;12.80;1.00;;;;;;5076671;28;20379;-82
2023/04/11 04:00:33;;;;;;;2.10;1.10;;;12.70;1.00;;;;;;5075842;28;20390;-82
2023/04/11 04:02:59;;;;;;;0.90;0.60;;;12.80;1.00;;;;;;5077728;28;20434;-82
2023/04/11 04:05:24;;;;;;;1.00;0.90;;;12.80;1.00;;;;;;5077881;28;20865;-82
2023/04/11 04:07:50;;;;;;;1.90;0.90;;;12.80;1.00;;;;;;5076289;28;20406;-83
2023/04/11 04:10:15;;;;;;;1.37;0.93;;;12.80;1.00;;;;;;5079269;28;20387;-82
2023/04/11 04:12:41;;;;;;;1.30;0.70;;;12.80;1.00;;;;;;5077746;28;20376;-82
2023/04/11 04:15:07;;;;;;;1.30;0.90;;;12.80;1.00;;;;;;5076857;28;20388;-82
2023/04/11 04:17:32;;;;;;;1.73;1.08;;;12.70;1.00;;;;;;5056464;28;20468;-82
2023/04/11 04:19:58;;;;;;;1.40;0.90;;;12.70;1.00;;;;;;5056693;28;20397;-82
2023/04/11 04:22:25;;;;;;;1.57;0.87;;;12.70;1.00;;;;;;5056160;28;20409;-83
2023/04/11 04:24:50;;;;;;;1.67;0.90;;;12.70;1.00;;;;;;5057319;28;20382;-83
2023/04/11 04:27:19;;;;;;;1.67;0.80;;;12.70;1.00;;;;;;5057763;28;20436;-83
2023/04/11 04:29:45;;;;;;;2.20;1.00;;;12.70;1.00;;;;;;5056496;28;20823;-82
2023/04/11 04:32:21;;;;;;;3.50;1.27;;;12.60;42.40;;;;;;5057367;28;20868;-82
2023/04/11 04:34:48;;;;;;;1.30;1.02;;;12.60;63.20;;;;;;5060226;28;20386;-82
2023/04/11 04:37:21;;;;;;;1.70;1.00;;;12.50;92.00;;;;;;5056740;28;20592;-82
2023/04/11 04:40:06;;;;;;;2.15;1.20;;;12.50;99.90;;;;;;5059532;28;20389;-82
2023/04/11 04:42:33;;;;;;;1.70;0.97;;;12.50;99.90;;;;;;5067744;28;20393;-82
2023/04/11 04:44:59;;;;;;;2.10;1.00;;;12.40;99.90;;;;;;5065012;28;20417;-82
2023/04/11 04:47:29;;;;;;;1.67;1.00;;;12.40;99.90;;;;;;5058831;28;20504;-83
2023/04/11 04:49:55;;;;;;;1.20;0.90;;;12.30;99.90;;;;;;5057054;28;20389;-82
2023/04/11 04:52:26;;;;;;;1.35;0.70;;;12.20;46.00;;;;;;5057786;28;20377;-82
2023/04/11 04:54:52;;;;;;;0.50;0.30;;;11.50;12.50;;;;;;5055366;28;20465;-83
2023/04/11 04:57:18;;;;;;;0.50;0.40;;;11.00;95.80;;;;;;5055315;28;20389;-84
2023/04/11 04:59:44;;;;;;;1.15;0.63;;;10.30;99.90;;;;;;5056734;28;20392;-86
2023/04/11 05:02:10;;;;;;;0.50;0.40;;;10.00;99.90;;;;;;5052500;28;20390;-86
2023/04/11 05:04:36;;;;;;;0.90;0.40;;;9.70;99.90;;;;;;5052144;28;20419;-86
2023/04/11 05:07:01;;;;;;;1.45;0.50;;;9.50;99.90;;;;;;5052571;28;20421;-86
2023/04/11 05:09:27;;;;;;;1.00;0.40;;;9.40;99.90;;;;;;5052390;28;20902;-85
2023/04/11 05:11:52;;;;;;;0.60;0.50;;;9.30;99.90;;;;;;5052778;28;20403;-85
2023/04/11 05:14:18;;;;;;;1.50;0.50;;;9.30;99.90;;;;;;5052398;28;20476;-86
2023/04/11 05:16:44;;;;;;;1.53;0.60;;;9.20;99.90;;;;;;5067285;28;20890;-87
2023/04/11 05:19:09;;;;;;;1.20;0.40;;;9.20;99.90;;;;;;5074570;28;20388;-86
2023/04/11 05:21:38;;;;;;;2.43;0.90;;;9.30;99.90;;;;;;5071984;28;20832;-86
2023/04/11 05:24:04;;;;;;;1.70;1.42;;;9.10;99.90;;;;;;5072094;28;20399;-87
2023/04/11 05:26:30;;;;;;;2.63;1.43;;;9.20;99.90;;;;;;5071265;28;20410;-86
2023/04/11 05:28:56;;;;;;;2.40;0.80;;;9.20;99.90;;;;;;5073155;28;20435;-87
2023/04/11 05:31:21;;;;;;;1.20;0.50;;;9.30;99.90;;;;;;5085970;28;20739;-87
2023/04/11 05:33:47;;;;;;;0.80;0.50;;;9.30;99.90;;;;;;5073242;28;20387;-87
2023/04/11 05:36:13;;;;;;;2.90;0.60;;;9.20;99.90;;;;;;5071343;28;20463;-87
2023/04/11 05:38:42;;;;;;;0.80;0.40;;;9.10;99.90;;;;;;5070978;28;20395;-87
2023/04/11 05:41:08;;;;;;;1.10;0.55;;;9.00;99.90;;;;;;5070967;28;20388;-86
2023/04/11 05:43:34;;;;;;;0.70;0.40;;;8.90;99.90;;;;;;5072549;28;20786;-86
2023/04/11 05:45:59;;;;;;;1.40;0.40;;;8.90;99.90;;;;;;5072910;28;20411;-86
2023/04/11 05:48:25;;;;;;;1.20;0.40;;;8.80;99.90;;;;;;5073000;28;20404;-86
2023/04/11 05:50:50;;;;;;;0.60;0.40;;;8.80;99.90;;;;;;5075969;28;20388;-86
2023/04/11 05:53:16;;;;;;;1.60;0.50;;;8.90;99.90;;;;;;5076910;28;20380;-85
2023/04/11 05:55:42;;;;;;;1.90;0.50;;;8.80;99.90;;;;;;5078735;28;20379;-85
2023/04/11 05:58:08;;;;;;;1.08;0.60;;;8.90;99.90;;;;;;5075708;28;20379;-86
2023/04/11 06:00:34;;;;;;;1.00;0.50;;;8.80;99.90;;;;;;5077206;28;20376;-86
2023/04/11 06:03:00;;;;;;;2.10;0.70;;;8.80;99.90;;;;;;5078730;28;20395;-86
2023/04/11 06:05:30;;;;;;;0.90;0.60;;;8.90;99.90;;;;;;5078973;28;20391;-86
2023/04/11 06:07:58;;;;;;;1.13;0.70;;;8.80;99.90;;;;;;5081498;28;20592;-86
2023/04/11 06:10:24;;;;;;;1.42;0.70;;;8.80;99.90;;;;;;5080413;28;20769;-86
2023/04/11 06:12:50;;;;;;;2.00;0.70;;;8.70;99.90;;;;;;5079877;28;20384;-85
2023/04/11 06:15:16;;;;;;;0.87;0.70;;;8.80;99.90;;;;;;5075641;28;20465;-85
2023/04/11 06:17:41;;;;;;;1.00;0.80;;;9.40;99.90;;;;;;5058963;28;20769;-85
2023/04/11 06:20:09;;;;;;;1.00;1.00;;;8.80;99.90;;;;;;5060805;28;20404;-84
2023/04/11 06:22:34;;;;;;;1.85;1.38;;;8.70;99.90;;;;;;5060264;28;20812;-85
2023/04/11 06:25:00;;;;;;;1.63;1.20;;;8.70;99.90;;;;;;5073578;28;20477;-86
2023/04/11 06:27:26;;;;;;;1.60;0.80;;;8.70;99.90;;;;;;5063659;28;20409;-86
2023/04/11 06:29:51;;;;;;;2.20;0.80;;;8.80;99.90;;;;;;5062347;28;20468;-85
2023/04/11 06:32:17;;;;;;;1.10;0.70;;;9.70;99.90;;;;;;5062923;28;20386;-85
2023/04/11 06:34:42;;;;;;;2.67;1.20;;;8.90;99.90;;;;;;5062615;28;20412;-85
2023/04/11 06:37:08;;;;;;;2.58;1.50;;;8.90;99.90;;;;;;5064444;28;20381;-86
2023/04/11 06:39:34;;;;;;;2.50;1.90;;;8.80;99.90;;;;;;5064589;28;20394;-85
2023/04/11 06:42:00;;;;;;;2.15;1.40;;;8.80;99.90;;;;;;5063714;28;20382;-86
2023/04/11 06:44:26;;;;;;;1.48;0.73;;;8.80;99.90;;;;;;5063521;28;20469;-85
2023/04/11 06:46:52;;;;;;;1.70;0.70;;;8.70;99.90;;;;;;5061140;28;20401;-85
2023/04/11 06:49:17;;;;;;;2.13;1.33;;;8.80;99.90;;;;;;5060877;28;20381;-85
2023/04/11 06:51:49;;;;;;;1.43;0.50;;;8.80;99.90;;;;;;5063366;28;20390;-85
2023/04/11 06:54:15;;;;;;;1.30;0.77;;;8.80;99.90;;;;;;5064103;28;20389;-85
2023/04/11 06:56:41;;;;;;;1.03;0.70;;;8.80;99.90;;;;;;5065275;28;20799;-85
2023/04/11 06:59:06;;;;;;;0.90;0.50;;;8.90;99.90;;;;;;5059974;28;20396;-85
2023/04/11 07:01:36;;;;;;;2.40;1.10;;;8.90;99.90;;;;;;5059128;28;20386;-85
2023/04/11 07:04:02;;;;;;;0.70;0.70;;;8.80;99.90;;;;;;5059116;28;20449;-85
2023/04/11 07:06:28;;;;;;;1.60;0.80;;;8.90;99.90;;;;;;5059243;28;20420;-86
2023/04/11 07:08:53;;;;;;;1.00;0.57;;;8.90;99.90;;;;;;5057609;28;20409;-85
2023/04/11 07:11:19;;;;;;;1.50;0.70;;;8.80;99.90;;;;;;5057328;28;20417;-85
2023/04/11 07:13:45;;;;;;;1.20;0.70;;;8.80;99.90;;;;;;5056112;28;20386;-85
2023/04/11 07:16:11;;;;;;;2.20;0.90;;;8.90;99.90;;;;;;5067284;28;20758;-85
2023/04/11 07:18:36;;;;;;;1.70;0.60;;;8.90;99.90;;;;;;5076740;28;20399;-85
2023/04/11 07:21:02;;;;;;;0.90;0.75;;;8.90;99.90;;;;;;5076212;28;20390;-85
2023/04/11 07:23:27;;;;;;;1.10;1.00;;;8.90;99.90;;;;;;5076746;28;20927;-85
2023/04/11 07:25:54;;;;;;;2.93;1.53;;;8.90;99.90;;;;;;5077096;28;20411;-85
2023/04/11 07:28:20;;;;;;;1.92;1.40;;;9.10;99.90;;;;;;5075971;28;20431;-85
2023/04/11 07:30:46;;;;;;;2.30;1.50;;;9.10;99.90;;;;;;5077538;28;20384;-86
2023/04/11 07:33:11;;;;;;;1.53;1.40;;;9.00;99.90;;;;;;5080659;28;20395;-86
2023/04/11 07:35:37;;;;;;;2.20;1.33;;;9.00;99.90;;;;;;5091030;28;20384;-86
2023/04/11 07:38:03;;;;;;;3.40;1.33;;;9.20;99.90;;;;;;5088256;28;20422;-85
2023/04/11 07:40:29;;;;;;;3.53;1.40;;;9.30;99.90;;;;;;5081081;28;20388;-86
2023/04/11 07:42:54;;;;;;;1.40;1.10;;;9.10;99.90;;;;;;5075056;28;20451;-86
2023/04/11 07:45:20;;;;;;;1.20;1.00;;;9.20;99.90;;;;;;5073194;28;20479;-86
2023/04/11 07:47:46;;;;;;;1.63;0.80;;;9.30;99.90;;;;;;5071976;28;20461;-86
2023/04/11 07:50:12;;;;;;;1.23;1.00;;;9.30;99.90;;;;;;5072326;28;20842;-86
2023/04/11 07:52:37;;;;;;;2.07;0.90;;;9.40;99.90;;;;;;5073040;28;20422;-86
2023/04/11 07:55:03;;;;;;;1.30;1.20;;;9.50;99.90;;;;;;5072419;28;20423;-86
2023/04/11 07:57:29;;;;;;;1.90;1.20;;;9.60;99.90;;;;;;5071038;28;20376;-87
2023/04/11 07:59:55;;;;;;;2.35;0.73;;;9.80;99.90;;;;;;5071601;28;20461;-86
2023/04/11 08:02:22;;;;;;;1.90;0.68;;;11.10;99.90;;;;;;5072939;28;20396;-87
2023/04/11 08:04:47;;;;;;;1.70;0.60;;;9.80;99.90;;;;;;5080685;28;20421;-86
2023/04/11 08:07:13;;;;;;;1.40;0.90;;;9.80;99.90;;;;;;5074323;28;20383;-86
2023/04/11 08:09:38;;;;;;;0.90;0.57;;;9.90;99.90;;;;;;5077795;28;20445;-88
2023/04/11 08:12:05;;;;;;;1.40;0.70;;;10.00;99.90;;;;;;5090896;28;20445;-87
2023/04/11 08:14:30;;;;;;;1.50;0.60;;;10.10;99.90;;;;;;5076645;28;20516;-86
2023/04/11 08:16:56;;;;;;;1.73;0.60;;;9.90;99.90;;;;;;5075878;28;20395;-87
2023/04/11 08:19:21;;;;;;;1.10;0.60;;;10.10;99.90;;;;;;5098382;22;20805;-81
2023/04/11 08:21:47;;;;;;;0.80;0.60;;;10.20;99.90;;;;;;5075395;28;20905;-83
2023/04/11 08:24:12;;;;;;;1.48;0.75;;;10.40;99.90;;;;;;5075101;28;20458;-80
2023/04/11 08:26:38;;;;;;;1.90;0.70;;;10.40;99.90;;;;;;5074959;28;20430;-82
2023/04/11 08:29:03;;;;;;;2.70;0.80;;;10.40;99.90;;;;;;5075690;28;20403;-83
2023/04/11 08:31:31;;;;;;;2.30;0.70;;;10.70;99.90;;;;;;5075874;28;20408;-82
2023/04/11 08:33:56;;;;;;;1.25;0.70;;;11.00;99.90;;;;;;5075322;28;20396;-80
2023/04/11 08:36:22;;;;;;;1.10;0.80;;;10.90;99.90;;;;;;5086908;28;20459;-80
2023/04/11 08:38:47;;;;;;;0.95;0.80;;;11.30;99.90;;;;;;5091423;28;20388;-80
2023/04/11 08:41:13;;;;;;;1.10;0.70;;;11.00;99.90;;;;;;5086921;28;20395;-83
2023/04/11 08:43:39;;;;;;;1.67;0.80;;;11.30;99.90;;;;;;5082668;28;20423;-82
2023/04/11 08:46:10;;;;;;;1.10;0.60;;;11.30;99.90;;;;;;5072522;28;20387;-81
2023/04/11 08:48:37;;;;;;;2.20;0.80;;;11.40;99.90;;;;;;5072819;28;20758;-81
2023/04/11 08:51:02;;;;;;;2.70;1.00;;;11.50;99.90;;;;;;5073175;28;20392;-81
2023/04/11 08:53:29;;;;;;;2.40;1.03;;;11.80;99.90;;;;;;5072798;28;20394;-81
2023/04/11 08:55:54;;;;;;;3.70;1.63;;;11.90;93.10;;;;;;5073179;28;20438;-81
2023/04/11 08:58:20;;;;;;;2.40;1.20;;;12.00;94.60;;;;;;5073730;28;20439;-81
2023/04/11 09:00:45;;;;;;;2.85;1.20;;;11.90;99.70;;;;;;5073062;28;20390;-81
2023/04/11 09:03:15;;;;;;;3.20;1.00;;;12.20;88.20;;;;;;5072407;28;20417;-80
2023/04/11 09:05:43;;;;;;;3.22;1.02;;;12.30;78.40;;;;;;5072705;28;20878;-81
2023/04/11 09:08:10;;;;;;;1.60;1.00;;;12.40;67.90;;;;;;5073120;28;20418;-79
2023/04/11 09:10:37;;;;;;;1.40;0.70;;;12.30;67.40;;;;;;5072760;28;20426;-81
2023/04/11 09:13:24;;;;;;;1.50;0.70;;;12.40;58.20;;;;;;5074246;28;20474;-80
2023/04/11 09:16:12;;;;;;;1.73;0.73;;;12.30;52.70;;;;;;5072811;28;20380;-81
2023/04/11 09:18:41;;;;;;;1.88;0.80;;;12.20;55.80;;;;;;5072710;28;20898;-81
2023/04/11 09:21:08;;;;;;;5.75;1.10;;;12.30;56.20;;;;;;5072664;28;20417;-82
2023/04/11 09:23:35;;;;;;;2.22;1.00;;;12.20;53.30;;;;;;5071655;28;20387;-80
2023/04/11 09:26:01;;;;;;;1.70;0.90;;;12.50;49.90;;;;;;5070602;28;20407;-82
2023/04/11 09:28:26;;;;;;;1.50;1.00;;;12.50;53.60;;;;;;5070972;28;20407;-80
2023/04/11 09:30:54;;;;;;;3.97;1.20;;;12.80;58.60;;;;;;5073019;28;20383;-81
2023/04/11 09:33:27;;;;;;;1.80;0.82;;;12.50;89.00;;;;;;5073872;28;21087;-81
2023/04/11 09:35:54;;;;;;;2.70;1.10;;;12.50;99.20;;;;;;5073021;28;20437;-81
2023/04/11 09:38:31;;;;;;;4.55;1.40;;;12.50;99.90;;;;;;5073452;28;20418;-81
2023/04/11 09:40:58;;;;;;;4.03;1.10;;;12.50;97.30;;;;;;5071460;28;20396;-82
2023/04/11 09:43:24;;;;;;;2.67;1.30;;;12.30;95.00;;;;;;5071946;28;20412;-81
2023/04/11 09:46:07;;;;;;;3.37;0.80;;;12.10;99.90;;;;;;5072911;28;20750;-82
2023/04/11 09:48:34;;;;;;;2.05;1.20;;;12.30;96.50;;;;;;5074371;28;20403;-80
2023/04/11 09:51:04;;;;;;;3.10;1.10;;;12.60;95.50;;;;;;5073945;28;20383;-80
2023/04/11 09:53:31;;;;;;;2.83;1.70;;;12.30;79.30;;;;;;5072142;28;20750;-81
2023/04/11 09:55:56;;;;;;;3.33;1.00;;;12.40;81.10;;;;;;5072809;28;20788;-81
2023/04/11 09:58:22;;;;;;;4.22;1.30;;;12.70;75.20;;;;;;5071541;28;20458;-82
2023/04/11 10:00:48;;;;;;;4.45;0.90;;;12.60;73.90;;;;;;5072620;28;20395;-81
2023/04/11 10:03:15;;;;;;;1.67;1.10;;;12.70;72.30;;;;;;5077550;28;20383;-81
2023/04/11 10:05:41;;;;;;;1.80;1.00;;;12.60;80.90;;;;;;5079325;28;20418;-82
2023/04/11 10:08:30;;;;;;;2.40;0.90;;;12.60;81.60;;;;;;5081758;28;20429;-80
2023/04/11 10:10:58;;;;;;;5.00;1.20;;;12.80;77.30;;;;;;5073995;28;20403;-81
2023/04/11 10:13:42;;;;;;;2.60;1.10;;;12.80;74.20;;;;;;5073232;28;20380;-80
2023/04/11 10:16:13;;;;;;;2.35;1.13;;;13.00;71.50;;;;;;5070407;28;20853;-80
2023/04/11 10:18:51;;;;;;;2.23;1.00;;;13.00;56.70;;;;;;5070519;28;20418;-80
2023/04/11 10:21:28;;;;;;;2.90;1.20;;;12.70;55.90;;;;;;5072129;28;20427;-79
2023/04/11 10:24:16;;;;;;;2.55;1.10;;;12.90;56.10;;;;;;5070140;28;20384;-80
2023/04/11 10:26:59;;;;;;;4.75;1.10;;;13.00;54.80;;;;;;5070163;28;20394;-80
2023/04/11 10:32:18;;;;;;;2.10;1.13;;;13.00;48.70;;;;;;5071904;28;20376;-81
2023/04/11 10:34:52;;;;;;;2.30;1.10;;;13.00;45.50;;;;;;5071674;28;20384;-80
2023/04/11 10:37:33;;;;;;;3.42;1.20;;;13.10;45.20;;;;;;5070843;28;20386;-80
2023/04/11 10:40:08;;;;;;;1.95;0.93;;;13.20;44.70;;;;;;5075631;28;20509;-81
2023/04/11 10:42:40;;;;;;;4.10;1.35;;;13.00;42.40;;;;;;5075017;28;20384;-79
2023/04/11 10:45:23;;;;;;;3.13;1.30;;;13.20;45.00;;;;;;5076004;28;20444;-80
2023/04/11 10:47:58;;;;;;;2.13;1.10;;;13.20;46.30;;;;;;5075436;28;20423;-81
2023/04/11 10:50:26;;;;;;;2.08;1.40;;;13.40;47.10;;;;;;5075267;28;20766;-80
2023/04/11 10:53:08;;;;;;;2.22;1.23;;;13.60;42.20;;;;;;5075211;28;20371;-80
2023/04/11 10:55:48;;;;;;;3.95;1.40;;;13.50;41.10;;;;;;5074526;28;20805;-79
2023/04/11 10:58:15;;;;;;;3.50;1.25;;;13.60;41.20;;;;;;5074998;28;20415;-79
2023/04/11 11:00:48;;;;;;;2.90;1.10;;;13.40;37.10;;;;;;5073933;28;20761;-79
2023/04/11 11:03:29;;;;;;;2.92;1.17;;;13.60;34.10;;;;;;5075433;28;20372;-80
2023/04/11 11:06:00;;;;;;;3.10;1.05;;;13.70;35.40;;;;;;5073550;28;20391;-80
2023/04/11 11:08:45;;;;;;;2.53;1.30;;;13.70;31.30;;;;;;5073444;28;20404;-80
2023/04/11 11:11:12;;;;;;;1.88;1.02;;;13.70;30.60;;;;;;5073591;28;20392;-81
2023/04/11 11:13:43;;;;;;;2.80;1.10;;;13.70;31.50;;;;;;5073197;28;20537;-80
2023/04/11 11:16:16;;;;;;;2.10;0.88;;;14.10;29.90;;;;;;5074525;28;20465;-78
2023/04/11 11:19:01;;;;;;;2.55;1.00;;;13.70;28.20;;;;;;5074118;28;20426;-80
2023/04/11 11:21:28;;;;;;;2.58;1.10;;;13.80;28.50;;;;;;5073986;28;20431;-79
2023/04/11 11:23:58;;;;;;;2.28;1.38;;;13.50;30.10;;;;;;5074664;28;20412;-79
2023/04/11 11:26:40;;;;;;;2.53;1.20;;;13.80;30.70;;;;;;5073491;28;20870;-79
2023/04/11 11:29:07;;;;;;;2.95;1.10;;;14.00;29.10;;;;;;5074294;28;20574;-79
2023/04/11 11:31:38;;;;;;;3.97;1.40;;;14.00;29.30;;;;;;5072685;28;20415;-80
2023/04/11 11:34:05;;;;;;;4.05;1.50;;;14.00;29.00;;;;;;5074141;28;20409;-81
2023/04/11 11:36:34;;;;;;;2.80;1.20;;;14.30;27.40;;;;;;5073915;28;20908;-80
2023/04/11 11:38:59;;;;;;;2.60;1.10;;;14.20;28.70;;;;;;5075187;28;20393;-79
2023/04/11 11:41:26;;;;;;;2.42;1.30;;;14.40;28.20;;;;;;5074517;28;20463;-80
2023/04/11 11:43:52;;;;;;;3.10;1.23;;;14.30;25.70;;;;;;5078497;28;20402;-79
2023/04/11 11:46:17;;;;;;;2.67;1.00;;;14.00;27.80;;;;;;5074258;28;20936;-80
2023/04/11 11:48:57;;;;;;;2.70;1.17;;;14.00;26.40;;;;;;5073006;28;20400;-79
2023/04/11 11:51:23;;;;;;;3.00;1.35;;;13.90;23.40;;;;;;5072665;28;20384;-81
2023/04/11 11:54:07;;;;;;;3.10;1.20;;;14.00;21.70;;;;;;5075776;28;20432;-81
2023/04/11 11:56:33;;;;;;;3.28;1.30;;;14.10;21.10;;;;;;5073429;28;20384;-79
2023/04/11 11:58:58;;;;;;;3.30;0.90;;;14.00;21.40;;;;;;5073336;28;20754;-80
2023/04/11 12:01:24;;;;;;;1.50;1.20;;;13.90;23.40;;;;;;5073274;28;20430;-79
2023/04/11 12:03:52;;;;;;;3.53;1.25;;;13.70;25.20;;;;;;5075859;28;20387;-78
2023/04/11 12:06:18;;;;;;;3.95;1.60;;;13.60;25.90;;;;;;5072891;28;20388;-78
2023/04/11 12:08:49;;;;;;;2.43;1.10;;;13.50;27.20;;;;;;5075384;28;20400;-78
2023/04/11 12:11:15;;;;;;;2.65;0.93;;;13.70;27.70;;;;;;5080043;28;20379;-79
2023/04/11 12:13:41;;;;;;;2.60;1.10;;;13.90;24.00;;;;;;5079285;28;20501;-79
2023/04/11 12:16:06;;;;;;;3.43;1.10;;;14.20;25.10;;;;;;5074605;28;20391;-80
2023/04/11 12:18:32;;;;;;;5.17;1.23;;;14.60;23.90;;;;;;5072875;28;20468;-79
2023/04/11 12:20:58;;;;;;;2.47;1.27;;;14.30;21.70;;;;;;5072213;28;20407;-80
2023/04/11 12:23:24;;;;;;;3.10;0.90;;;14.20;21.30;;;;;;5073903;28;20395;-80
2023/04/11 12:25:49;;;;;;;3.72;1.15;;;14.50;19.50;;;;;;5071927;28;20416;-79
2023/04/11 12:28:15;;;;;;;5.43;1.20;;;15.00;19.00;;;;;;5072233;28;20399;-80
2023/04/11 12:30:40;;;;;;;2.10;0.90;;;14.80;19.30;;;;;;5073492;28;20391;-80
2023/04/11 12:33:06;;;;;;;3.20;1.60;;;14.60;19.80;;;;;;5073965;28;20462;-80
2023/04/11 12:35:32;;;;;;;4.43;1.10;;;15.00;20.00;;;;;;5074020;28;20455;-79
2023/04/11 12:37:58;;;;;;;3.00;1.40;;;14.70;20.80;;;;;;5076157;28;20469;-78
2023/04/11 12:40:24;;;;;;;3.75;0.98;;;14.70;20.90;;;;;;5077155;28;20380;-79
2023/04/11 12:42:49;;;;;;;3.67;1.40;;;14.90;20.30;;;;;;5077233;28;20382;-79
2023/04/11 12:45:15;;;;;;;2.80;1.23;;;14.40;19.10;;;;;;5078400;28;20425;-79
2023/04/11 12:47:41;;;;;;;2.72;1.20;;;14.60;20.00;;;;;;5077929;28;20403;-80
2023/04/11 12:50:08;;;;;;;2.70;1.20;;;14.70;19.80;;;;;;5072659;28;20417;-81
2023/04/11 12:52:34;;;;;;;2.70;1.30;;;14.70;18.20;;;;;;5073728;28;20754;-80
2023/04/11 12:55:00;;;;;;;2.95;1.13;;;14.60;18.50;;;;;;5071894;28;20384;-79